Time;durP1;ratioP1;P1;durP2;ratioP2;P2;SDS_P1;SDS_P2;PMS_P1;PMS_P2;Temp;Humidity;BMP_temperature;BMP_pressure;BME280_temperature;BME280_humidity;BME280_pressure;Samples;Min_cycle;Max_cycle;Signal;HPM_P1;HPM_P2
2023/04/20 00:00:26;;;;;;;1.45;0.45;;;8.60;1.00;;;;;;20596903;28;20049;-41
2023/04/20 00:10:27;;;;;;;1.85;0.73;;;8.50;1.00;;;;;;20599413;28;20038;-41
2023/04/20 00:20:28;;;;;;;1.92;1.08;;;8.30;1.00;;;;;;20590474;28;20034;-41
2023/04/20 00:30:29;;;;;;;3.00;0.63;;;8.00;1.00;;;;;;20583268;28;20044;-41
2023/04/20 00:40:30;;;;;;;2.05;0.85;;;7.90;1.00;;;;;;20585554;28;20073;-40
2023/04/20 00:50:33;;;;;;;3.92;1.20;;;7.80;1.00;;;;;;20587228;28;20042;-41
2023/04/20 01:00:34;;;;;;;2.80;0.80;;;7.70;1.00;;;;;;20590312;28;20043;-41
2023/04/20 01:10:35;;;;;;;2.97;1.42;;;7.80;1.00;;;;;;20575820;28;20038;-41
2023/04/20 01:20:37;;;;;;;2.30;1.10;;;7.90;1.00;;;;;;20575130;28;20049;-41
2023/04/20 01:30:38;;;;;;;2.40;0.68;;;7.90;1.00;;;;;;20584252;28;20524;-41
2023/04/20 01:40:39;;;;;;;2.25;0.77;;;8.10;1.00;;;;;;20590900;28;20042;-41
2023/04/20 01:50:40;;;;;;;3.58;1.15;;;8.20;1.00;;;;;;20576778;28;20050;-41
2023/04/20 02:00:41;;;;;;;3.90;1.20;;;8.20;1.00;;;;;;20580731;28;20046;-41
2023/04/20 02:10:42;;;;;;;2.22;0.65;;;8.10;1.00;;;;;;20580301;28;20041;-41
2023/04/20 02:20:44;;;;;;;1.45;0.80;;;8.20;1.00;;;;;;20580172;28;20386;-41
2023/04/20 02:30:45;;;;;;;2.20;0.85;;;8.20;1.00;;;;;;20570304;28;20402;-41
2023/04/20 02:40:46;;;;;;;2.55;0.70;;;8.40;1.00;;;;;;20565778;28;20120;-41
2023/04/20 02:50:47;;;;;;;4.35;1.02;;;8.60;1.00;;;;;;20572457;28;20054;-41
2023/04/20 03:00:48;;;;;;;0.75;0.30;;;8.70;1.00;;;;;;20572861;28;20046;-41
2023/04/20 03:10:49;;;;;;;2.17;0.85;;;8.70;1.00;;;;;;20567755;28;20660;-41
2023/04/20 03:20:51;;;;;;;2.65;0.80;;;8.80;1.00;;;;;;20567885;28;20047;-41
2023/04/20 03:30:52;;;;;;;2.30;0.77;;;8.90;1.00;;;;;;20566722;28;20045;-41
2023/04/20 03:40:53;;;;;;;2.53;0.90;;;9.10;1.00;;;;;;20562469;28;20046;-42
2023/04/20 03:50:54;;;;;;;1.90;0.70;;;9.10;1.00;;;;;;20556568;28;20046;-42
2023/04/20 04:01:06;;;;;;;2.60;1.05;;;9.30;1.00;;;;;;20578986;28;20501;-42
2023/04/20 04:11:07;;;;;;;1.70;1.00;;;9.30;1.00;;;;;;20575354;28;20077;-41
2023/04/20 04:21:09;;;;;;;1.88;0.65;;;9.40;1.00;;;;;;20580784;28;20046;-42
2023/04/20 04:31:11;;;;;;;1.45;0.70;;;9.40;1.00;;;;;;20580627;28;20042;-42
2023/04/20 04:41:12;;;;;;;1.63;0.70;;;9.50;1.00;;;;;;20566498;28;20026;-42
2023/04/20 04:51:13;;;;;;;1.25;0.60;;;9.40;1.00;;;;;;20593860;28;20490;-41
2023/04/20 05:01:15;;;;;;;1.80;0.60;;;9.50;1.00;;;;;;20592580;28;20053;-43
2023/04/20 05:11:16;;;;;;;1.40;0.73;;;9.40;1.00;;;;;;20590985;28;20034;-42
2023/04/20 05:21:17;;;;;;;2.60;1.25;;;9.50;1.00;;;;;;20603240;28;20042;-42
2023/04/20 05:31:19;;;;;;;2.05;0.90;;;9.70;1.00;;;;;;20594891;28;20042;-42
2023/04/20 05:41:25;;;;;;;1.90;0.70;;;9.60;1.00;;;;;;20597348;28;20486;-42
2023/04/20 05:51:30;;;;;;;2.33;0.75;;;9.40;1.00;;;;;;20596839;28;20038;-42
2023/04/20 06:01:31;;;;;;;2.13;0.98;;;9.30;1.00;;;;;;20587954;28;20637;-42
2023/04/20 06:11:32;;;;;;;3.25;1.10;;;9.20;1.00;;;;;;20578940;28;20042;-42
2023/04/20 06:21:35;;;;;;;2.15;1.00;;;9.10;1.00;;;;;;20586975;28;20042;-42
2023/04/20 06:31:36;;;;;;;2.35;1.52;;;9.10;1.00;;;;;;20581584;28;20049;-41
2023/04/20 06:41:37;;;;;;;2.60;1.00;;;9.20;1.00;;;;;;20579084;28;20034;-40
2023/04/20 06:51:39;;;;;;;1.50;0.52;;;9.20;1.00;;;;;;20606400;28;20514;-40
2023/04/20 07:01:40;;;;;;;2.30;1.15;;;9.10;1.00;;;;;;20596335;28;20046;-41
2023/04/20 07:11:41;;;;;;;2.03;1.10;;;8.90;1.00;;;;;;20582274;28;20053;-40
2023/04/20 07:21:42;;;;;;;3.00;1.27;;;8.70;1.00;;;;;;20580085;28;20041;-40
2023/04/20 07:31:43;;;;;;;1.77;0.90;;;8.60;1.00;;;;;;20581593;28;20054;-37
2023/04/20 07:41:44;;;;;;;4.70;1.33;;;8.10;1.00;;;;;;20570659;28;20557;-38
2023/04/20 07:51:45;;;;;;;3.35;1.17;;;7.90;1.00;;;;;;20520253;28;20133;-37
2023/04/20 08:01:46;;;;;;;2.85;1.33;;;7.80;1.00;;;;;;20586017;28;20034;-37
2023/04/20 08:11:48;;;;;;;4.22;0.90;;;7.60;1.00;;;;;;20559052;28;21000;-37
2023/04/20 08:21:50;;;;;;;3.38;1.25;;;7.50;1.00;;;;;;20573743;28;20069;-37
2023/04/20 08:31:51;;;;;;;3.97;1.75;;;7.40;1.00;;;;;;20592373;28;20042;-37
2023/04/20 08:41:54;;;;;;;4.25;2.25;;;7.20;1.00;;;;;;20598371;28;20050;-37
2023/04/20 08:51:55;;;;;;;2.35;0.80;;;7.30;1.00;;;;;;20580342;28;20046;-38
2023/04/20 09:02:10;;;;;;;2.92;1.08;;;7.60;1.00;;;;;;20593769;28;20520;-37
2023/04/20 09:12:11;;;;;;;2.13;0.90;;;7.70;1.00;;;;;;20590987;28;20042;-39
2023/04/20 09:22:12;;;;;;;3.13;1.35;;;7.70;1.00;;;;;;20597364;28;20541;-40
2023/04/20 09:32:24;;;;;;;2.67;1.30;;;7.70;1.00;;;;;;20592802;28;20046;-40
2023/04/20 09:42:27;;;;;;;3.88;1.48;;;8.00;1.00;;;;;;20589359;28;20034;-43
2023/04/20 09:52:29;;;;;;;4.88;2.05;;;8.40;1.00;;;;;;20553206;28;20073;-42
2023/04/20 10:02:30;;;;;;;3.53;1.77;;;9.00;1.00;;;;;;20563137;28;21603;-42
2023/04/20 10:12:32;;;;;;;2.83;1.38;;;9.30;1.00;;;;;;20564293;28;20044;-42
2023/04/20 10:22:33;;;;;;;2.78;1.50;;;9.40;1.00;;;;;;20568621;28;20069;-42
2023/04/20 10:32:34;;;;;;;5.43;1.88;;;9.50;1.00;;;;;;20566380;28;20042;-43
2023/04/20 10:42:44;;;;;;;4.28;1.48;;;9.40;1.00;;;;;;20595294;28;20038;-43
2023/04/20 10:52:45;;;;;;;2.92;1.35;;;9.60;1.00;;;;;;20597562;28;20053;-42
2023/04/20 11:02:56;;;;;;;2.53;1.33;;;10.30;1.00;;;;;;20594839;28;20046;-43
2023/04/20 11:12:57;;;;;;;2.80;1.73;;;10.80;1.00;;;;;;20607299;28;20474;-43
2023/04/20 11:22:58;;;;;;;3.97;1.98;;;10.60;1.00;;;;;;20598857;28;20065;-43
2023/04/20 11:32:59;;;;;;;4.25;1.77;;;10.30;1.00;;;;;;20578104;28;20042;-43
2023/04/20 11:43:01;;;;;;;5.90;2.53;;;10.20;1.00;;;;;;20576697;28;20111;-44
2023/04/20 11:53:02;;;;;;;3.58;1.52;;;10.90;1.00;;;;;;20582873;28;20042;-43
2023/04/20 12:03:03;;;;;;;5.78;1.77;;;12.00;1.00;;;;;;20580738;28;20619;-43
2023/04/20 12:13:04;;;;;;;4.25;2.20;;;11.40;1.00;;;;;;20579807;28;20050;-42
2023/04/20 12:23:05;;;;;;;9.38;1.92;;;11.00;1.00;;;;;;20568739;28;20082;-43
2023/04/20 12:33:06;;;;;;;5.38;1.73;;;11.00;1.00;;;;;;20572085;28;20050;-43
2023/04/20 12:43:08;;;;;;;3.13;1.58;;;10.90;1.00;;;;;;20578165;28;20608;-43
2023/04/20 12:53:09;;;;;;;3.88;1.85;;;10.90;1.00;;;;;;20578253;28;20050;-43
2023/04/20 13:03:10;;;;;;;4.35;1.77;;;10.80;1.00;;;;;;20578962;28;20042;-42
2023/04/20 13:13:11;;;;;;;4.32;1.50;;;10.50;1.00;;;;;;20578972;28;20460;-40
2023/04/20 13:23:12;;;;;;;4.72;2.13;;;10.80;1.00;;;;;;20574633;28;20065;-41
2023/04/20 13:33:13;;;;;;;3.65;1.73;;;11.20;1.00;;;;;;20570308;28;20042;-41
2023/04/20 13:43:14;;;;;;;3.13;1.27;;;11.70;1.00;;;;;;20581968;28;20045;-41
2023/04/20 13:53:15;;;;;;;3.35;1.50;;;11.30;1.00;;;;;;20576229;28;20513;-41
2023/04/20 14:03:18;;;;;;;2.55;1.15;;;11.10;1.00;;;;;;20567427;28;20808;-42
2023/04/20 14:13:20;;;;;;;4.50;1.42;;;11.30;1.00;;;;;;20581193;28;20045;-41
2023/04/20 14:23:21;;;;;;;3.92;1.40;;;12.10;1.00;;;;;;20572335;28;20486;-42
2023/04/20 14:33:22;;;;;;;3.97;2.08;;;12.00;1.00;;;;;;20562575;28;20407;-42
2023/04/20 14:43:23;;;;;;;4.03;1.90;;;11.70;1.00;;;;;;20572488;28;20069;-42
2023/04/20 14:53:24;;;;;;;3.22;1.45;;;11.80;1.00;;;;;;20568902;28;20137;-42
2023/04/20 15:03:25;;;;;;;3.55;1.83;;;11.90;1.00;;;;;;20569539;28;20222;-41
2023/04/20 15:13:26;;;;;;;4.38;1.75;;;11.90;1.00;;;;;;20580148;28;20493;-41
2023/04/20 15:23:27;;;;;;;3.25;1.60;;;12.30;1.00;;;;;;20576470;28;20046;-42
2023/04/20 15:33:28;;;;;;;3.75;2.08;;;12.80;1.00;;;;;;20574328;28;20046;-41
2023/04/20 15:43:29;;;;;;;3.05;1.80;;;13.10;1.00;;;;;;20584184;28;20120;-41
2023/04/20 15:53:31;;;;;;;2.90;1.70;;;12.60;1.00;;;;;;20592650;28;20049;-41
2023/04/20 16:03:32;;;;;;;5.38;2.45;;;12.50;1.00;;;;;;20614881;28;21398;-41
2023/04/20 16:13:34;;;;;;;4.53;1.85;;;12.40;1.00;;;;;;20616433;28;20502;-41
2023/04/20 16:23:35;;;;;;;3.17;1.55;;;12.40;1.00;;;;;;20618194;28;20060;-41
2023/04/20 16:33:36;;;;;;;3.55;2.05;;;12.70;1.00;;;;;;20589429;28;20042;-41
2023/04/20 16:43:37;;;;;;;4.22;2.25;;;12.40;1.00;;;;;;20589094;28;20038;-41
2023/04/20 16:53:38;;;;;;;2.85;1.50;;;12.10;1.00;;;;;;20585209;28;20078;-41
2023/04/20 17:03:39;;;;;;;4.63;1.80;;;12.10;1.00;;;;;;20581449;28;20038;-41
2023/04/20 17:13:40;;;;;;;4.00;2.00;;;12.30;1.00;;;;;;20577983;28;20802;-41
2023/04/20 17:23:41;;;;;;;2.88;1.38;;;12.10;1.00;;;;;;20583966;28;20046;-41
2023/04/20 17:33:43;;;;;;;6.72;2.92;;;11.80;1.00;;;;;;20583233;28;20046;-41
2023/04/20 17:43:44;;;;;;;3.00;1.73;;;11.80;1.00;;;;;;20587343;28;20082;-41
2023/04/20 17:53:45;;;;;;;6.45;1.90;;;11.90;1.00;;;;;;20590109;28;20044;-41
2023/04/20 18:03:48;;;;;;;6.07;1.88;;;12.00;1.00;;;;;;20595197;28;20050;-41
2023/04/20 18:13:50;;;;;;;3.17;2.10;;;11.60;1.00;;;;;;20591714;28;20050;-41
2023/04/20 18:23:51;;;;;;;3.55;1.95;;;11.40;1.00;;;;;;20601666;28;20050;-41
2023/04/20 18:33:52;;;;;;;4.40;1.75;;;11.20;1.00;;;;;;20610382;28;20046;-41
2023/04/20 18:43:54;;;;;;;5.68;2.25;;;11.20;1.00;;;;;;20601266;28;20037;-41
2023/04/20 18:53:55;;;;;;;4.93;1.92;;;11.10;1.00;;;;;;20605764;28;20042;-41
2023/04/20 19:03:56;;;;;;;3.72;1.85;;;10.90;1.00;;;;;;20587645;28;20042;-41
2023/04/20 19:13:57;;;;;;;4.82;2.08;;;10.90;1.00;;;;;;20583602;28;20038;-41
2023/04/20 19:23:58;;;;;;;3.78;1.48;;;10.80;1.00;;;;;;20588293;28;20034;-41
2023/04/20 19:33:59;;;;;;;4.32;1.52;;;10.60;1.00;;;;;;20602757;28;20046;-41
2023/04/20 19:44:04;;;;;;;4.03;2.15;;;10.60;1.00;;;;;;20589153;28;20035;-40
2023/04/20 19:54:06;;;;;;;4.65;2.00;;;10.80;1.00;;;;;;20598817;28;20517;-40
2023/04/20 20:04:07;;;;;;;5.55;2.38;;;10.80;1.00;;;;;;20598674;28;20042;-40
2023/04/20 20:14:08;;;;;;;4.63;2.22;;;10.90;1.00;;;;;;20593231;28;20042;-41
2023/04/20 20:24:09;;;;;;;3.88;2.17;;;10.70;1.00;;;;;;20582049;28;20038;-41
2023/04/20 20:34:10;;;;;;;4.43;2.28;;;10.60;1.00;;;;;;20586360;28;20046;-41
2023/04/20 20:44:11;;;;;;;4.07;2.13;;;10.50;1.00;;;;;;20580140;28;20039;-41
2023/04/20 20:54:12;;;;;;;5.22;2.80;;;10.40;1.00;;;;;;20593090;28;20038;-40
2023/04/20 21:04:13;;;;;;;4.45;2.38;;;10.30;1.00;;;;;;20600745;28;20026;-40
2023/04/20 21:14:14;;;;;;;3.88;2.08;;;10.30;1.00;;;;;;20611886;28;20430;-41
2023/04/20 21:24:15;;;;;;;7.28;3.22;;;10.10;1.00;;;;;;20589916;28;20221;-41
2023/04/20 21:34:17;;;;;;;5.88;2.42;;;10.00;1.00;;;;;;20602801;28;20061;-41
2023/04/20 21:44:18;;;;;;;6.85;2.95;;;10.00;1.00;;;;;;20615396;28;20651;-41
2023/04/20 21:54:19;;;;;;;8.10;3.75;;;10.00;1.00;;;;;;20617816;28;20296;-41
2023/04/20 22:04:20;;;;;;;5.00;2.60;;;9.80;1.00;;;;;;20614998;28;20456;-41
2023/04/20 22:14:22;;;;;;;5.78;2.80;;;9.70;1.00;;;;;;20598340;28;20053;-41
2023/04/20 22:24:23;;;;;;;5.90;2.90;;;9.80;1.00;;;;;;20594336;28;20035;-41
2023/04/20 22:34:24;;;;;;;4.82;2.80;;;9.70;1.00;;;;;;20604195;28;20592;-41
2023/04/20 22:44:25;;;;;;;4.07;1.88;;;9.50;1.00;;;;;;20587171;28;20038;-42
2023/04/20 22:54:26;;;;;;;6.82;3.22;;;9.40;1.00;;;;;;20591442;28;20049;-41
2023/04/20 23:04:28;;;;;;;6.20;3.17;;;9.20;1.00;;;;;;20594714;28;20051;-41
2023/04/20 23:14:29;;;;;;;6.75;3.05;;;9.10;1.00;;;;;;20609833;28;20042;-41
2023/04/20 23:24:30;;;;;;;6.50;3.38;;;9.20;1.00;;;;;;20607530;28;20043;-41
2023/04/20 23:34:31;;;;;;;7.85;3.20;;;9.00;1.00;;;;;;20609275;28;20122;-41
2023/04/20 23:44:32;;;;;;;6.40;3.38;;;8.90;1.00;;;;;;20593119;28;20523;-41
2023/04/20 23:54:33;;;;;;;5.97;3.30;;;8.90;1.00;;;;;;20600424;28;20698;-41
